createdAt,value
2018-09-06T00:00:58.775Z,26.32
2018-09-06T00:01:58.775Z,26.26
2018-09-06T00:02:58.784Z,26.23
2018-09-06T00:03:58.789Z,26.30
2018-09-06T00:04:58.912Z,26.29
2018-09-06T00:05:58.803Z,26.29
2018-09-06T00:06:58.801Z,26.32
2018-09-06T00:07:58.804Z,26.29
2018-09-06T00:08:58.807Z,26.32
2018-09-06T00:09:58.813Z,26.32
2018-09-06T00:10:58.821Z,26.33
2018-09-06T00:11:58.823Z,26.29
2018-09-06T00:12:58.828Z,26.36
2018-09-06T00:13:58.844Z,26.32
2018-09-06T00:14:58.837Z,26.21
2018-09-06T00:15:58.850Z,26.21
2018-09-06T00:16:58.847Z,26.23
2018-09-06T00:17:58.851Z,26.28
2018-09-06T00:18:58.856Z,26.30
2018-09-06T00:19:58.863Z,26.26
2018-09-06T00:20:58.865Z,26.32
2018-09-06T00:21:58.870Z,26.29
2018-09-06T00:22:58.887Z,26.29
2018-09-06T00:23:58.887Z,26.20
2018-09-06T00:24:58.895Z,26.37
2018-09-06T00:25:58.891Z,26.23
2018-09-06T00:26:58.894Z,26.21
2018-09-06T00:27:58.899Z,26.33
2018-09-06T00:28:58.904Z,26.36
2018-09-06T00:29:58.908Z,26.25
2018-09-06T00:30:58.914Z,26.26
2018-09-06T00:31:58.922Z,26.25
2018-09-06T00:32:58.927Z,26.30
2018-09-06T00:33:58.927Z,26.28
2018-09-06T00:34:58.931Z,26.25
2018-09-06T00:35:58.937Z,26.35
2018-09-06T00:36:58.943Z,26.26
2018-09-06T00:37:58.946Z,26.30
2018-09-06T00:38:58.967Z,26.18
2018-09-06T00:39:58.960Z,26.26
2018-09-06T00:40:58.962Z,26.26
2018-09-06T00:41:58.967Z,26.29
2018-09-06T00:42:58.970Z,26.30
2018-09-06T00:43:58.975Z,26.33
2018-09-06T00:44:58.980Z,26.29
2018-09-06T00:45:58.984Z,26.29
2018-09-06T00:46:58.989Z,26.28
2018-09-06T00:47:58.992Z,26.29
2018-09-06T00:48:58.997Z,26.23
2018-09-06T00:49:59.003Z,26.29
2018-09-06T00:50:59.006Z,26.30
2018-09-06T00:51:59.010Z,26.29
2018-09-06T00:52:59.016Z,26.29
2018-09-06T00:53:59.022Z,26.20
2018-09-06T00:54:59.027Z,26.29
2018-09-06T00:55:59.030Z,26.21
2018-09-06T00:56:59.042Z,26.29
2018-09-06T00:57:59.039Z,26.30
2018-09-06T00:58:59.045Z,26.21
2018-09-06T00:59:59.049Z,26.32
2018-09-06T01:00:59.054Z,26.29
2018-09-06T01:01:59.060Z,26.29
2018-09-06T01:02:59.063Z,26.18
2018-09-06T01:03:59.068Z,26.26
2018-09-06T01:04:59.074Z,26.32
2018-09-06T01:05:59.078Z,26.29
2018-09-06T01:06:59.083Z,26.20
2018-09-06T01:07:59.088Z,26.33
2018-09-06T01:08:59.093Z,26.30
2018-09-06T01:09:59.098Z,26.29
2018-09-06T01:10:59.101Z,26.28
2018-09-06T01:11:59.107Z,26.28
2018-09-06T01:12:59.109Z,26.29
2018-09-06T01:13:59.115Z,26.23
2018-09-06T01:14:59.121Z,26.17
2018-09-06T01:15:59.125Z,26.30
2018-09-06T01:16:59.131Z,26.28
2018-09-06T01:17:59.137Z,26.29
2018-09-06T01:18:59.143Z,26.29
2018-09-06T01:19:59.144Z,26.30
2018-09-06T01:20:59.148Z,26.37
2018-09-06T01:21:59.153Z,26.26
2018-09-06T01:22:59.159Z,26.33
2018-09-06T01:23:59.163Z,26.29
2018-09-06T01:24:59.169Z,26.29
2018-09-06T01:25:59.173Z,26.26
2018-09-06T01:26:59.177Z,26.26
2018-09-06T01:27:59.183Z,26.32
2018-09-06T01:28:59.187Z,26.18
2018-09-06T01:29:59.205Z,26.29
2018-09-06T01:30:59.198Z,26.23
2018-09-06T01:31:59.201Z,26.26
2018-09-06T01:32:59.207Z,26.23
2018-09-06T01:33:59.211Z,26.33
2018-09-06T01:34:59.217Z,26.26
2018-09-06T01:35:59.221Z,26.25
2018-09-06T01:36:59.229Z,26.20
2018-09-06T01:37:59.229Z,26.28
2018-09-06T01:38:59.235Z,26.23
2018-09-06T01:39:59.240Z,26.20
2018-09-06T01:40:59.245Z,26.20
2018-09-06T01:41:59.259Z,26.20
2018-09-06T01:42:59.254Z,26.29
2018-09-06T01:43:59.260Z,26.29
2018-09-06T01:44:59.264Z,26.23
2018-09-06T01:45:59.268Z,26.25
2018-09-06T01:46:59.279Z,26.33
2018-09-06T01:47:59.279Z,26.29
2018-09-06T01:48:59.281Z,26.32
2018-09-06T01:49:59.287Z,26.30
2018-09-06T01:50:59.292Z,26.18
2018-09-06T01:51:59.297Z,26.29
2018-09-06T01:52:59.303Z,26.30
2018-09-06T01:53:59.309Z,26.28
2018-09-06T01:54:59.312Z,26.26
2018-09-06T01:55:59.316Z,26.30
2018-09-06T01:56:59.321Z,26.29
2018-09-06T01:57:59.333Z,26.30
2018-09-06T01:58:59.330Z,26.29
2018-09-06T01:59:59.338Z,26.29
2018-09-06T02:00:59.343Z,26.25
2018-09-06T02:01:59.344Z,26.28
2018-09-06T02:02:59.349Z,26.23
2018-09-06T02:03:59.354Z,26.30
2018-09-06T02:04:59.359Z,26.23
2018-09-06T02:05:59.363Z,26.26
2018-09-06T02:06:59.373Z,26.21
2018-09-06T02:07:59.374Z,26.32
2018-09-06T02:08:59.378Z,26.18
2018-09-06T02:09:59.381Z,26.32
2018-09-06T02:10:59.386Z,26.20
2018-09-06T02:11:59.390Z,26.25
2018-09-06T02:12:59.400Z,26.28
2018-09-06T02:13:59.404Z,26.33
2018-09-06T02:14:59.409Z,26.26
2018-09-06T02:15:59.412Z,26.23
2018-09-06T02:16:59.418Z,26.23
2018-09-06T02:17:59.419Z,26.26
2018-09-06T02:18:59.425Z,26.23
2018-09-06T02:19:59.429Z,26.21
2018-09-06T02:20:59.437Z,26.23
2018-09-06T02:21:59.441Z,26.25
2018-09-06T02:22:59.443Z,26.20
2018-09-06T02:23:59.448Z,26.23
2018-09-06T02:24:59.453Z,26.21
2018-09-06T02:25:59.457Z,26.25
2018-09-06T02:26:59.460Z,26.23
2018-09-06T02:27:59.467Z,26.25
2018-09-06T02:28:59.502Z,26.18
2018-09-06T02:29:59.479Z,26.23
2018-09-06T02:30:59.481Z,26.25
2018-09-06T02:31:59.487Z,26.21
2018-09-06T02:32:59.495Z,26.13
2018-09-06T02:33:59.495Z,26.15
2018-09-06T02:34:59.500Z,26.13
2018-09-06T02:35:59.505Z,26.10
2018-09-06T02:36:59.510Z,26.09
2018-09-06T02:37:59.514Z,26.09
2018-09-06T02:38:59.519Z,26.10
2018-09-06T02:39:59.524Z,26.10
2018-09-06T02:40:59.529Z,26.06
2018-09-06T02:41:59.533Z,25.97
2018-09-06T02:42:59.539Z,25.97
2018-09-06T02:43:59.542Z,26.05
2018-09-06T02:44:59.547Z,25.99
2018-09-06T02:45:59.551Z,25.95
2018-09-06T02:46:59.556Z,26.01
2018-09-06T02:47:59.568Z,26.02
2018-09-06T02:48:59.566Z,25.97
2018-09-06T02:49:59.569Z,26.02
2018-09-06T02:50:59.575Z,26.05
2018-09-06T02:51:59.579Z,25.98
2018-09-06T02:52:59.584Z,25.95
2018-09-06T02:53:59.593Z,26.02
2018-09-06T02:54:59.593Z,25.99
2018-09-06T02:55:59.599Z,25.99
2018-09-06T02:56:59.602Z,25.95
2018-09-06T02:57:59.606Z,25.98
2018-09-06T02:58:59.613Z,25.95
2018-09-06T02:59:59.616Z,25.97
2018-09-06T03:00:59.622Z,25.97
2018-09-06T03:01:59.625Z,25.91
2018-09-06T03:02:59.630Z,25.95
2018-09-06T03:03:59.635Z,25.94
2018-09-06T03:04:59.640Z,25.92
2018-09-06T03:05:59.647Z,25.97
2018-09-06T03:06:59.652Z,26.01
2018-09-06T03:07:59.653Z,25.99
2018-09-06T03:08:59.658Z,25.99
2018-09-06T03:09:59.663Z,25.97
2018-09-06T03:10:59.670Z,25.92
2018-09-06T03:11:59.672Z,25.97
2018-09-06T03:12:59.676Z,25.99
2018-09-06T03:13:59.681Z,25.97
2018-09-06T03:14:59.687Z,25.95
2018-09-06T03:15:59.697Z,25.92
2018-09-06T03:16:59.695Z,26.07
2018-09-06T03:17:59.698Z,25.99
2018-09-06T03:18:59.704Z,25.94
2018-09-06T03:19:59.708Z,25.99
2018-09-06T03:20:59.713Z,25.97
2018-09-06T03:21:59.718Z,25.95
2018-09-06T03:22:59.726Z,25.90
2018-09-06T03:23:59.728Z,25.92
2018-09-06T03:24:59.732Z,25.94
2018-09-06T03:25:59.736Z,25.94
2018-09-06T03:26:59.741Z,25.94
2018-09-06T03:27:59.745Z,25.87
2018-09-06T03:28:59.750Z,25.88
2018-09-06T03:29:59.804Z,25.87
2018-09-06T03:30:59.759Z,25.87
2018-09-06T03:31:59.788Z,25.88
2018-09-06T03:32:59.771Z,25.92
2018-09-06T03:33:59.773Z,25.85
2018-09-06T03:34:59.777Z,25.88
2018-09-06T03:35:59.889Z,25.91
2018-09-06T03:36:59.787Z,25.90
2018-09-06T03:37:59.790Z,25.80
2018-09-06T03:38:59.795Z,25.88
2018-09-06T03:39:59.801Z,25.87
2018-09-06T03:40:59.806Z,25.88
2018-09-06T03:41:59.810Z,25.88
2018-09-06T03:42:59.819Z,25.91
2018-09-06T03:43:59.818Z,25.85
2018-09-06T03:44:59.823Z,25.88
2018-09-06T03:45:59.830Z,25.87
2018-09-06T03:46:59.832Z,25.92
2018-09-06T03:47:59.837Z,25.90
2018-09-06T03:48:59.841Z,25.92
2018-09-06T03:49:59.848Z,25.91
2018-09-06T03:50:59.850Z,25.97
2018-09-06T03:51:59.856Z,25.95
2018-09-06T03:52:59.859Z,25.94
2018-09-06T03:53:59.863Z,25.91
2018-09-06T03:54:59.868Z,25.92
2018-09-06T03:55:59.873Z,25.87
2018-09-06T03:56:59.875Z,25.90
2018-09-06T03:57:59.884Z,25.98
2018-09-06T03:58:59.886Z,25.90
2018-09-06T03:59:59.891Z,25.97
2018-09-06T04:00:59.902Z,25.87
2018-09-06T04:01:59.904Z,25.91
2018-09-06T04:02:59.906Z,25.95
2018-09-06T04:03:59.909Z,25.94
2018-09-06T04:04:59.914Z,25.92
2018-09-06T04:05:59.918Z,25.91
2018-09-06T04:06:59.923Z,25.88
2018-09-06T04:07:59.925Z,25.90
2018-09-06T04:08:59.933Z,25.91
2018-09-06T04:09:59.937Z,25.92
2018-09-06T04:10:59.942Z,25.90
2018-09-06T04:11:59.945Z,25.91
2018-09-06T04:12:59.950Z,25.92
2018-09-06T04:13:59.958Z,25.91
2018-09-06T04:14:59.965Z,25.90
2018-09-06T04:15:59.965Z,25.91
2018-09-06T04:16:59.973Z,25.94
2018-09-06T04:17:59.972Z,25.94
2018-09-06T04:18:59.977Z,25.92
2018-09-06T04:19:59.984Z,25.88
2018-09-06T04:20:59.987Z,25.85
2018-09-06T04:21:59.990Z,25.90
2018-09-06T04:23:00.002Z,25.80
2018-09-06T04:23:59.999Z,25.91
2018-09-06T04:25:00.004Z,25.87
2018-09-06T04:26:00.009Z,25.87
2018-09-06T04:27:00.015Z,25.90
2018-09-06T04:28:00.018Z,25.90
2018-09-06T04:29:00.024Z,25.82
2018-09-06T04:30:00.030Z,25.88
2018-09-06T04:31:00.031Z,25.83
2018-09-06T04:32:00.042Z,25.90
2018-09-06T04:33:00.043Z,25.87
2018-09-06T04:34:00.044Z,25.92
2018-09-06T04:35:00.052Z,25.90
2018-09-06T04:36:00.080Z,25.87
2018-09-06T04:37:00.059Z,25.90
2018-09-06T04:38:00.062Z,25.88
2018-09-06T04:39:00.067Z,25.87
2018-09-06T04:40:00.073Z,25.83
2018-09-06T04:41:00.076Z,25.83
2018-09-06T04:42:00.081Z,25.92
2018-09-06T04:43:00.085Z,25.87
2018-09-06T04:44:00.090Z,25.90
2018-09-06T04:45:00.095Z,25.82
2018-09-06T04:46:00.100Z,25.82
2018-09-06T04:47:00.107Z,25.85
2018-09-06T04:48:00.108Z,25.82
2018-09-06T04:49:00.111Z,25.75
2018-09-06T04:50:00.117Z,25.82
2018-09-06T04:51:00.121Z,25.80
2018-09-06T04:52:00.126Z,25.79
2018-09-06T04:53:00.131Z,25.80
2018-09-06T04:54:00.134Z,25.75
2018-09-06T04:55:00.142Z,25.73
2018-09-06T04:56:00.144Z,25.75
2018-09-06T04:57:00.148Z,25.75
2018-09-06T04:58:00.153Z,25.75
2018-09-06T04:59:00.160Z,25.72
2018-09-06T05:00:00.162Z,25.72
2018-09-06T05:01:00.167Z,25.76
2018-09-06T05:02:00.171Z,25.76
2018-09-06T05:03:00.179Z,25.73
2018-09-06T05:04:00.180Z,25.76
2018-09-06T05:05:00.191Z,25.75
2018-09-06T05:06:00.199Z,25.70
2018-09-06T05:07:00.193Z,25.75
2018-09-06T05:08:00.197Z,25.75
2018-09-06T05:09:00.208Z,25.79
2018-09-06T05:10:00.206Z,25.79
2018-09-06T05:11:00.211Z,25.70
2018-09-06T05:12:00.216Z,25.73
2018-09-06T05:13:00.225Z,25.73
2018-09-06T05:14:00.224Z,25.69
2018-09-06T05:15:00.229Z,25.67
2018-09-06T05:16:00.233Z,25.69
2018-09-06T05:17:00.238Z,25.65
2018-09-06T05:18:00.245Z,25.76
2018-09-06T05:19:00.246Z,25.70
2018-09-06T05:20:00.251Z,25.58
2018-09-06T05:21:00.255Z,25.69
2018-09-06T05:22:00.317Z,25.70
2018-09-06T05:23:00.264Z,25.72
2018-09-06T05:24:00.269Z,25.70
2018-09-06T05:25:00.311Z,25.70
2018-09-06T05:26:00.277Z,25.62
2018-09-06T05:27:00.280Z,25.62
2018-09-06T05:28:00.287Z,25.69
2018-09-06T05:29:00.290Z,25.72
2018-09-06T05:30:00.295Z,25.61
2018-09-06T05:31:00.300Z,25.61
2018-09-06T05:32:00.306Z,25.70
2018-09-06T05:33:00.305Z,25.61
2018-09-06T05:34:00.313Z,25.73
2018-09-06T05:35:00.372Z,25.64
2018-09-06T05:36:00.341Z,25.64
2018-09-06T05:37:00.327Z,25.76
2018-09-06T05:38:00.334Z,25.62
2018-09-06T05:39:00.337Z,25.73
2018-09-06T05:40:00.340Z,25.72
2018-09-06T05:41:00.344Z,25.62
2018-09-06T05:42:00.353Z,25.61
2018-09-06T05:43:00.353Z,25.65
2018-09-06T05:44:00.358Z,25.58
2018-09-06T05:45:00.363Z,25.64
2018-09-06T05:46:00.365Z,25.57
2018-09-06T05:47:00.373Z,25.72
2018-09-06T05:48:00.378Z,25.72
2018-09-06T05:49:00.380Z,25.65
2018-09-06T05:50:00.385Z,25.69
2018-09-06T05:51:00.389Z,25.73
2018-09-06T05:52:00.393Z,25.65
2018-09-06T05:53:00.398Z,25.75
2018-09-06T05:54:00.402Z,25.69
2018-09-06T05:55:00.407Z,25.69
2018-09-06T05:56:00.412Z,25.79
2018-09-06T05:57:00.416Z,25.72
2018-09-06T05:58:00.439Z,25.73
2018-09-06T05:59:00.424Z,25.76
2018-09-06T06:00:00.481Z,25.73
2018-09-06T06:01:00.434Z,25.62
2018-09-06T06:02:00.439Z,25.70
2018-09-06T06:03:00.442Z,25.70
2018-09-06T06:04:00.450Z,25.69
2018-09-06T06:05:00.452Z,25.67
2018-09-06T06:06:00.458Z,25.79
2018-09-06T06:07:00.459Z,25.65
2018-09-06T06:08:00.465Z,25.67
2018-09-06T06:09:00.471Z,25.61
2018-09-06T06:10:00.473Z,25.60
2018-09-06T06:11:00.476Z,25.72
2018-09-06T06:12:00.487Z,25.60
2018-09-06T06:13:00.487Z,25.62
2018-09-06T06:14:00.491Z,25.62
2018-09-06T06:15:00.494Z,25.64
2018-09-06T06:16:00.564Z,25.58
2018-09-06T06:17:00.505Z,25.62
2018-09-06T06:18:00.510Z,25.67
2018-09-06T06:19:00.515Z,25.69
2018-09-06T06:20:00.642Z,25.64
2018-09-06T06:21:00.526Z,25.75
2018-09-06T06:22:00.528Z,25.65
2018-09-06T06:23:00.532Z,25.64
2018-09-06T06:24:00.536Z,25.60
2018-09-06T06:25:00.541Z,25.69
2018-09-06T06:26:00.588Z,25.67
2018-09-06T06:27:00.552Z,25.72
2018-09-06T06:28:00.554Z,25.61
2018-09-06T06:29:00.562Z,25.61
2018-09-06T06:30:00.562Z,25.62
2018-09-06T06:31:00.567Z,25.75
2018-09-06T06:32:00.572Z,25.67
2018-09-06T06:33:00.579Z,25.69
2018-09-06T06:34:00.613Z,25.70
2018-09-06T06:35:00.584Z,25.70
2018-09-06T06:36:00.590Z,25.64
2018-09-06T06:37:00.595Z,25.73
2018-09-06T06:38:00.603Z,25.72
2018-09-06T06:39:00.604Z,25.73
2018-09-06T06:40:00.606Z,25.72
2018-09-06T06:41:00.612Z,25.77
2018-09-06T06:42:00.614Z,25.76
2018-09-06T06:43:00.620Z,25.76
2018-09-06T06:44:00.625Z,25.77
2018-09-06T06:45:00.629Z,25.82
2018-09-06T06:46:00.634Z,25.80
2018-09-06T06:47:00.642Z,25.79
2018-09-06T06:48:00.642Z,25.87
2018-09-06T06:49:00.648Z,25.90
2018-09-06T06:50:00.651Z,25.82
2018-09-06T06:51:00.655Z,25.87
2018-09-06T06:52:00.660Z,25.79
2018-09-06T06:53:00.664Z,25.87
2018-09-06T06:54:00.674Z,25.83
2018-09-06T06:55:00.672Z,25.82
2018-09-06T06:56:00.679Z,25.85
2018-09-06T06:57:00.680Z,25.82
2018-09-06T06:58:00.688Z,25.79
2018-09-06T06:59:00.693Z,25.85
2018-09-06T07:00:00.695Z,25.83
2018-09-06T07:01:00.718Z,25.79
2018-09-06T07:02:00.703Z,25.85
2018-09-06T07:03:00.710Z,25.85
2018-09-06T07:04:00.714Z,25.88
2018-09-06T07:05:00.717Z,25.79
2018-09-06T07:06:00.727Z,25.90
2018-09-06T07:07:00.810Z,25.83
2018-09-06T07:08:00.730Z,25.90
2018-09-06T07:09:00.736Z,25.85
2018-09-06T07:10:00.739Z,25.85
2018-09-06T07:11:00.744Z,25.90
2018-09-06T07:12:00.749Z,25.87
2018-09-06T07:13:00.753Z,25.88
2018-09-06T07:14:00.757Z,25.88
2018-09-06T07:15:00.763Z,25.90
2018-09-06T07:16:00.768Z,25.94
2018-09-06T07:17:00.775Z,25.88
2018-09-06T07:18:00.776Z,25.87
2018-09-06T07:19:00.781Z,25.90
2018-09-06T07:20:00.785Z,25.92
2018-09-06T07:21:00.791Z,25.90
2018-09-06T07:22:00.794Z,25.91
2018-09-06T07:23:00.798Z,25.88
2018-09-06T07:24:00.804Z,25.90
2018-09-06T07:25:00.865Z,25.92
2018-09-06T07:26:00.811Z,25.94
2018-09-06T07:27:00.817Z,25.95
2018-09-06T07:28:00.823Z,25.92
2018-09-06T07:29:00.827Z,25.94
2018-09-06T07:30:00.832Z,25.95
2018-09-06T07:31:00.836Z,25.94
2018-09-06T07:32:00.841Z,25.97
2018-09-06T07:33:00.844Z,25.95
2018-09-06T07:34:00.848Z,25.97
2018-09-06T07:35:00.853Z,25.95
2018-09-06T07:36:00.858Z,25.98
2018-09-06T07:37:00.873Z,25.92
2018-09-06T07:38:00.866Z,25.98
2018-09-06T07:39:00.873Z,25.97
2018-09-06T07:40:00.877Z,25.97
2018-09-06T07:41:00.881Z,25.99
2018-09-06T07:42:00.885Z,26.01
2018-09-06T07:43:00.890Z,25.98
2018-09-06T07:44:00.897Z,25.99
2018-09-06T07:45:00.899Z,26.07
2018-09-06T07:46:00.905Z,26.12
2018-09-06T07:47:00.913Z,26.13
2018-09-06T07:48:00.914Z,26.07
2018-09-06T07:49:00.917Z,26.09
2018-09-06T07:50:00.938Z,26.10
2018-09-06T07:51:00.927Z,26.13
2018-09-06T07:52:00.934Z,26.13
2018-09-06T07:53:00.936Z,26.09
2018-09-06T07:54:00.961Z,26.12
2018-09-06T07:55:00.951Z,26.17
2018-09-06T07:56:00.955Z,26.13
2018-09-06T07:57:00.955Z,26.10
2018-09-06T07:58:00.962Z,26.17
2018-09-06T07:59:00.964Z,26.29
2018-09-06T08:00:00.969Z,26.23
2018-09-06T08:01:00.974Z,26.18
2018-09-06T08:02:00.978Z,26.17
2018-09-06T08:03:00.985Z,26.21
2018-09-06T08:04:00.989Z,26.18
2018-09-06T08:05:00.993Z,26.20
2018-09-06T08:06:00.998Z,26.18
2018-09-06T08:07:01.001Z,26.23
2018-09-06T08:08:01.007Z,26.20
2018-09-06T08:09:01.011Z,26.21
2018-09-06T08:10:01.018Z,26.25
2018-09-06T08:11:01.020Z,26.21
2018-09-06T08:12:01.041Z,26.23
2018-09-06T08:13:01.029Z,26.23
2018-09-06T08:14:01.035Z,26.25
2018-09-06T08:15:01.039Z,26.25
2018-09-06T08:16:01.047Z,26.33
2018-09-06T08:17:01.050Z,26.21
2018-09-06T08:18:01.053Z,26.30
2018-09-06T08:19:01.059Z,26.20
2018-09-06T08:20:01.063Z,26.20
2018-09-06T08:21:01.069Z,26.32
2018-09-06T08:22:01.072Z,26.29
2018-09-06T08:23:01.077Z,26.36
2018-09-06T08:24:01.082Z,26.37
2018-09-06T08:25:01.088Z,26.40
2018-09-06T08:26:01.092Z,26.35
2018-09-06T08:27:01.096Z,26.43
2018-09-06T08:28:01.106Z,26.40
2018-09-06T08:29:01.105Z,26.43
2018-09-06T08:30:01.110Z,26.45
2018-09-06T08:31:01.269Z,26.47
2018-09-06T08:32:01.118Z,26.44
2018-09-06T08:33:01.127Z,26.37
2018-09-06T08:34:01.138Z,26.45
2018-09-06T08:35:01.134Z,26.48
2018-09-06T08:36:01.141Z,26.40
2018-09-06T08:37:01.266Z,26.40
2018-09-06T08:38:01.156Z,26.43
2018-09-06T08:39:01.153Z,26.52
2018-09-06T08:40:01.161Z,26.54
2018-09-06T08:41:01.163Z,26.55
2018-09-06T08:42:01.171Z,26.55
2018-09-06T08:43:01.172Z,26.52
2018-09-06T08:44:01.179Z,26.62
2018-09-06T08:45:01.183Z,26.75
2018-09-06T08:46:01.188Z,26.67
2018-09-06T08:47:01.190Z,26.80
2018-09-06T08:48:01.198Z,26.81
2018-09-06T08:49:01.206Z,26.72
2018-09-06T08:50:01.207Z,26.82
2018-09-06T08:51:01.224Z,26.76
2018-09-06T08:52:01.252Z,26.72
2018-09-06T08:53:01.225Z,26.77
2018-09-06T08:54:01.225Z,26.82
2018-09-06T08:55:01.233Z,26.76
2018-09-06T08:56:01.239Z,26.87
2018-09-06T08:57:01.243Z,26.77
2018-09-06T08:58:01.246Z,26.81
2018-09-06T08:59:01.256Z,26.84
2018-09-06T09:00:01.259Z,26.88
2018-09-06T09:01:01.264Z,26.89
2018-09-06T09:02:01.307Z,26.92
2018-09-06T09:03:01.273Z,26.89
2018-09-06T09:04:01.279Z,26.94
2018-09-06T09:05:01.284Z,26.97
2018-09-06T09:06:01.318Z,26.94
2018-09-06T09:07:01.293Z,26.94
2018-09-06T09:08:01.299Z,26.92
2018-09-06T09:09:01.304Z,27.00
2018-09-06T09:10:01.310Z,26.92
2018-09-06T09:11:01.312Z,26.94
2018-09-06T09:12:01.320Z,26.92
2018-09-06T09:13:01.396Z,26.97
2018-09-06T09:14:01.328Z,26.97
2018-09-06T09:15:01.335Z,26.91
2018-09-06T09:16:01.387Z,26.92
2018-09-06T09:17:01.359Z,26.99
2018-09-06T09:18:01.350Z,26.92
2018-09-06T09:19:01.354Z,26.99
2018-09-06T09:20:01.360Z,26.95
2018-09-06T09:21:01.368Z,26.92
2018-09-06T09:22:01.463Z,26.95
2018-09-06T09:23:01.380Z,26.91
2018-09-06T09:24:01.380Z,26.99
2018-09-06T09:25:01.386Z,26.92
2018-09-06T09:26:01.412Z,26.92
2018-09-06T09:27:01.396Z,26.99
2018-09-06T09:28:01.402Z,26.94
2018-09-06T09:29:01.406Z,26.99
2018-09-06T09:30:01.416Z,27.02
2018-09-06T09:31:01.417Z,26.95
2018-09-06T09:32:01.423Z,26.92
2018-09-06T09:33:01.429Z,26.95
2018-09-06T09:34:01.432Z,27.00
2018-09-06T09:35:01.437Z,26.94
2018-09-06T09:36:01.518Z,26.94
2018-09-06T09:37:01.448Z,26.91
2018-09-06T09:38:01.451Z,26.92
2018-09-06T09:39:01.465Z,26.95
2018-09-06T09:40:01.464Z,27.00
2018-09-06T09:41:01.468Z,26.94
2018-09-06T09:42:01.473Z,26.95
2018-09-06T09:43:01.482Z,26.95
2018-09-06T09:44:01.483Z,27.00
2018-09-06T09:45:01.490Z,27.03
2018-09-06T09:47:57.914Z,27.04
2018-09-06T09:48:57.918Z,27.09
2018-09-06T09:49:57.929Z,27.10
2018-09-06T09:50:57.932Z,27.10
2018-09-06T09:51:57.935Z,27.07
2018-09-06T09:52:57.946Z,27.10
2018-09-06T09:53:57.944Z,27.10
2018-09-06T09:54:57.951Z,27.14
2018-09-06T09:55:57.957Z,27.17
2018-09-06T09:56:58.025Z,27.13
2018-09-06T09:57:57.966Z,27.12
2018-09-06T09:58:57.970Z,27.24
2018-09-06T09:59:57.977Z,27.21
2018-09-06T10:00:57.981Z,27.25
2018-09-06T10:01:57.988Z,27.17
2018-09-06T10:02:57.992Z,27.24
2018-09-06T10:03:57.999Z,27.25
2018-09-06T10:04:58.001Z,27.21
2018-09-06T10:05:58.008Z,27.27
2018-09-06T10:06:58.019Z,27.21
2018-09-06T10:07:58.020Z,27.21
2018-09-06T10:08:58.021Z,27.21
2018-09-06T10:09:58.029Z,27.19
2018-09-06T10:10:58.035Z,27.22
2018-09-06T10:11:58.040Z,27.29
2018-09-06T10:12:58.046Z,27.24
2018-09-06T10:13:58.050Z,27.34
2018-09-06T10:14:58.055Z,27.34
2018-09-06T10:15:58.062Z,27.31
2018-09-06T10:16:58.065Z,27.39
2018-09-06T10:17:58.134Z,27.34
2018-09-06T10:18:58.076Z,27.34
2018-09-06T10:19:58.081Z,27.36
2018-09-06T10:20:58.094Z,27.43
2018-09-06T10:21:58.092Z,27.41
2018-09-06T10:22:58.098Z,27.41
2018-09-06T10:23:58.103Z,27.40
2018-09-06T10:24:58.109Z,27.49
2018-09-06T10:25:58.114Z,27.43
2018-09-06T10:26:58.119Z,27.40
2018-09-06T10:27:58.124Z,27.43
2018-09-06T10:28:58.129Z,27.50
2018-09-06T10:29:58.150Z,27.43
2018-09-06T10:30:58.139Z,27.46
2018-09-06T10:31:58.145Z,27.41
2018-09-06T10:32:58.150Z,27.46
2018-09-06T10:33:58.169Z,27.47
2018-09-06T10:34:58.161Z,27.49
2018-09-06T10:35:58.171Z,27.54
2018-09-06T10:36:58.171Z,27.50
2018-09-06T10:37:58.177Z,27.47
2018-09-06T10:38:58.183Z,27.54
2018-09-06T10:39:58.251Z,27.55
2018-09-06T10:40:58.195Z,27.54
2018-09-06T10:41:58.199Z,27.51
2018-09-06T10:42:58.207Z,27.51
2018-09-06T10:43:58.218Z,27.55
2018-09-06T10:44:58.215Z,27.54
2018-09-06T10:45:58.221Z,27.55
2018-09-06T10:46:58.227Z,27.49
2018-09-06T10:47:58.315Z,27.51
2018-09-06T10:48:58.238Z,27.60
2018-09-06T10:49:58.292Z,27.51
2018-09-06T10:50:58.249Z,27.63
2018-09-06T10:51:58.254Z,27.51
2018-09-06T10:52:58.264Z,27.57
2018-09-06T10:53:58.265Z,27.47
2018-09-06T10:54:58.271Z,27.49
2018-09-06T10:55:58.277Z,27.50
2018-09-06T10:56:58.283Z,27.50
2018-09-06T10:57:58.287Z,27.55
2018-09-06T10:58:58.303Z,27.55
2018-09-06T10:59:58.300Z,27.47
2018-09-06T11:00:58.304Z,27.47
2018-09-06T11:01:58.309Z,27.49
2018-09-06T11:02:58.314Z,27.44
2018-09-06T11:03:58.320Z,27.36
2018-09-06T11:04:58.325Z,27.41
2018-09-06T11:05:58.333Z,27.39
2018-09-06T11:06:58.338Z,27.40
2018-09-06T11:07:58.423Z,27.40
2018-09-06T11:08:58.351Z,27.43
2018-09-06T11:09:58.361Z,27.41
2018-09-06T11:10:58.357Z,27.44
2018-09-06T11:11:58.366Z,27.41
2018-09-06T11:12:58.368Z,27.41
2018-09-06T11:13:58.376Z,27.37
2018-09-06T11:14:58.389Z,27.41
2018-09-06T11:15:58.385Z,27.34
2018-09-06T11:16:58.390Z,27.40
2018-09-06T11:17:58.452Z,27.36
2018-09-06T11:18:58.401Z,27.32
2018-09-06T11:19:58.408Z,27.32
2018-09-06T11:20:58.451Z,27.32
2018-09-06T11:21:58.618Z,27.39
2018-09-06T11:22:58.427Z,27.32
2018-09-06T11:23:58.430Z,27.34
2018-09-06T11:24:58.432Z,27.37
2018-09-06T11:25:58.440Z,27.36
2018-09-06T11:26:58.444Z,27.27
2018-09-06T11:27:58.456Z,27.34
2018-09-06T11:28:58.457Z,27.32
2018-09-06T11:29:58.461Z,27.25
2018-09-06T11:30:58.465Z,27.31
2018-09-06T11:31:58.471Z,27.32
2018-09-06T11:32:58.475Z,27.29
2018-09-06T11:33:58.482Z,27.32
2018-09-06T11:34:58.486Z,27.18
2018-09-06T11:35:58.493Z,27.24
2018-09-06T11:36:58.497Z,27.34
2018-09-06T11:37:58.504Z,27.28
2018-09-06T11:38:58.508Z,27.18
2018-09-06T11:39:58.525Z,27.28
2018-09-06T11:40:58.518Z,27.24
2018-09-06T11:41:58.522Z,27.24
2018-09-06T11:42:58.529Z,27.24
2018-09-06T11:43:58.538Z,27.24
2018-09-06T11:44:58.539Z,27.21
2018-09-06T11:45:58.544Z,27.25
2018-09-06T11:46:58.596Z,27.25
2018-09-06T11:47:58.566Z,27.22
2018-09-06T11:48:58.560Z,27.25
2018-09-06T11:49:58.565Z,27.27
2018-09-06T11:50:58.572Z,27.21
2018-09-06T11:51:58.577Z,27.22
2018-09-06T11:52:58.581Z,27.24
2018-09-06T11:53:58.596Z,27.24
2018-09-06T11:54:58.594Z,27.24
2018-09-06T11:55:58.600Z,27.22
2018-09-06T11:56:58.602Z,27.22
2018-09-06T11:57:58.609Z,27.27
2018-09-06T11:58:58.619Z,27.25
2018-09-06T11:59:58.619Z,27.24
2018-09-06T12:00:58.626Z,27.31
2018-09-06T12:01:58.634Z,27.22
2018-09-06T12:02:58.636Z,27.22
2018-09-06T12:03:58.640Z,27.21
2018-09-06T12:04:58.644Z,27.25
2018-09-06T12:05:58.652Z,27.21
2018-09-06T12:06:58.657Z,27.13
2018-09-06T12:07:58.662Z,27.14
2018-09-06T12:08:58.666Z,27.13
2018-09-06T12:09:58.676Z,27.09
2018-09-06T12:10:58.678Z,27.13
2018-09-06T12:11:58.690Z,27.13
2018-09-06T12:12:58.691Z,27.10
2018-09-06T12:13:58.699Z,27.17
2018-09-06T12:14:58.699Z,27.10
2018-09-06T12:15:58.707Z,27.18
2018-09-06T12:16:58.708Z,27.12
2018-09-06T12:17:58.715Z,27.12
2018-09-06T12:18:58.720Z,27.14
2018-09-06T12:19:58.726Z,27.13
2018-09-06T12:20:58.731Z,27.12
2018-09-06T12:21:58.737Z,27.12
2018-09-06T12:22:58.740Z,27.13
2018-09-06T12:23:58.747Z,27.14
2018-09-06T12:24:58.755Z,27.10
2018-09-06T12:25:58.755Z,27.13
2018-09-06T12:26:58.762Z,27.21
2018-09-06T12:27:58.768Z,27.13
2018-09-06T12:28:58.772Z,27.25
2018-09-06T12:29:58.778Z,27.19
2018-09-06T12:30:58.784Z,27.21
2018-09-06T12:31:58.788Z,27.28
2018-09-06T12:32:58.799Z,27.31
2018-09-06T12:33:58.799Z,27.25
2018-09-06T12:34:58.804Z,27.24
2018-09-06T12:35:58.808Z,27.22
2018-09-06T12:36:58.814Z,27.36
2018-09-06T12:37:58.820Z,27.28
2018-09-06T12:38:58.825Z,27.27
2018-09-06T12:39:58.830Z,27.27
2018-09-06T12:40:58.835Z,27.25
2018-09-06T12:41:58.840Z,27.36
2018-09-06T12:42:58.846Z,27.31
2018-09-06T12:43:58.851Z,27.36
2018-09-06T12:44:58.857Z,27.31
2018-09-06T12:45:58.865Z,27.34
2018-09-06T12:46:58.867Z,27.31
2018-09-06T12:47:58.873Z,27.34
2018-09-06T12:48:58.884Z,27.32
2018-09-06T12:49:58.883Z,27.34
2018-09-06T12:50:58.888Z,27.32
2018-09-06T12:51:58.894Z,27.32
2018-09-06T12:52:58.899Z,27.34
2018-09-06T12:53:58.909Z,27.34
2018-09-06T12:54:58.909Z,27.34